Data for 01/22/2011

Time Sea-Level Adjusted Pressure Absolute Pressure Temperature Relative Humidity Dew Point   
(mb) (inHg) (mb) (inHg) (C) (F) (%) (C) (F)
00:05 1008 29.77 837 24.72 3.9 39 57 -3.9 25
00:10 1007 29.74 837 24.72 3.8 38.8 56 -4.2 24.4
00:15 1007 29.74 836 24.69 3.8 38.8 54 -4.6 23.8
00:20 1007 29.74 836 24.69 3.9 39 53 -4.7 23.6
00:25 1007 29.74 836 24.69 3.8 38.9 55 -4.5 23.9
00:30 1007 29.74 836 24.69 3.6 38.5 56 -4.5 24
00:35 1007 29.74 837 24.72 3.3 38 56 -4.5 23.9
00:40 1007 29.74 837 24.72 3 37.5 57 -4.7 23.6
00:45 1007 29.74 837 24.72 2.9 37.2 57 -4.7 23.6
00:50 1008 29.77 837 24.72 2.8 37.1 58 -4.6 23.8
00:55 1008 29.77 837 24.72 2.7 36.8 58 -4.7 23.6
01:00 1008 29.77 837 24.72 2.5 36.4 59 -4.8 23.4
01:05 1007 29.74 837 24.72 2.5 36.4 58 -4.9 23.2
01:10 1007 29.74 837 24.72 2.6 36.6 56 -5.5 22.2
01:15 1007 29.74 837 24.72 2.9 37.3 51 -6.2 20.9
01:20 1008 29.77 837 24.72 3.1 37.6 52 -5.9 21.4
01:25 1008 29.77 837 24.72 3.1 37.6 53 -5.7 21.8
01:30 1009 29.8 838 24.75 2 35.5 82 -0.7 30.7
01:35 1009 29.8 838 24.75 0.4 32.7 89 -1.1 29.9
01:40 1009 29.8 838 24.75 -0.1 31.8 92 -1.2 29.8
01:45 1009 29.8 838 24.75 -0.3 31.4 94 -1.2 29.8
01:50 1009 29.8 838 24.75 -0.4 31.2 94 -1.2 29.8
01:55 1009 29.8 838 24.75 -0.5 31.1 95 -1.2 29.8
02:00 1009 29.8 838 24.75 -0.6 31 95 -1.2 29.8
02:05 1009 29.8 838 24.75 -0.6 30.9 96 -1.2 29.8
02:10 1009 29.8 838 24.75 -0.6 30.9 96 -1.3 29.7
02:15 1009 29.8 838 24.75 -0.7 30.8 96 -1.3 29.6
02:20 1009 29.8 839 24.78 -0.8 30.6 95 -1.4 29.4
02:25 1009 29.8 839 24.78 -0.9 30.4 96 -1.5 29.4
02:30 1009 29.8 839 24.78 -0.8 30.5 95 -1.5 29.3
02:35 1010 29.83 839 24.78 -0.8 30.5 95 -1.6 29.1
02:40 1009 29.8 839 24.78 -0.7 30.7 93 -1.7 28.9
02:45 1009 29.8 839 24.78 -0.8 30.6 92 -1.9 28.5
02:50 1009 29.8 839 24.78 -1.1 30.1 93 -2.1 28.2
02:55 1010 29.83 839 24.78 -1.2 29.9 92 -2.3 27.9
03:00 1010 29.83 839 24.78 -1.1 29.9 92 -2.3 27.9
03:05 1010 29.83 839 24.78 -1 30.2 91 -2.3 27.9
03:10 1010 29.83 840 24.81 -0.9 30.4 90 -2.3 27.8
03:15 1011 29.85 840 24.81 -0.9 30.4 90 -2.4 27.7
03:20 1011 29.85 840 24.81 -0.8 30.5 88 -2.5 27.4
03:25 1011 29.85 840 24.81 -0.8 30.6 87 -2.7 27.2
03:30 1011 29.85 840 24.81 -0.6 30.8 85 -2.9 26.9
03:35 1011 29.85 840 24.81 -0.4 31.3 84 -2.8 27
03:40 1011 29.85 840 24.81 -0.4 31.4 85 -2.6 27.3
03:45 1011 29.85 840 24.81 -0.4 31.3 85 -2.7 27.2
03:50 1011 29.85 840 24.81 -0.5 31.1 85 -2.7 27.1
03:55 1011 29.85 840 24.81 -0.5 31 81 -3.5 25.7
04:00 1011 29.85 840 24.81 -0.3 31.4 78 -3.6 25.4
04:05 1011 29.85 840 24.81 -0.2 31.6 77 -3.8 25.2
04:10 1011 29.85 840 24.81 -0.2 31.6 76 -4 24.9
04:15 1011 29.85 840 24.81 -0.2 31.6 75 -4.2 24.5
04:20 1011 29.85 840 24.81 -0.2 31.6 74 -4.4 24.1
04:25 1011 29.85 840 24.81 -0.2 31.7 73 -4.5 24
04:30 1011 29.85 841 24.83 -0.2 31.7 73 -4.5 24
04:35 1011 29.85 841 24.83 -0.3 31.5 73 -4.5 23.9
04:40 1011 29.85 841 24.83 -0.4 31.2 74 -4.6 23.8
04:45 1012 29.88 841 24.83 -0.4 31.2 73 -4.6 23.7
04:50 1012 29.88 841 24.83 -0.4 31.3 73 -4.6 23.6
04:55 1012 29.88 841 24.83 -0.4 31.3 73 -4.7 23.5
05:00 1012 29.88 841 24.83 -0.3 31.5 72 -4.7 23.5
05:05 1012 29.88 841 24.83 -0.2 31.6 72 -4.7 23.6
05:10 1012 29.88 841 24.83 -0.2 31.6 72 -4.7 23.5
05:15 1012 29.88 841 24.83 -0.2 31.6 72 -4.6 23.7
05:20 1012 29.88 841 24.83 -0.2 31.6 72 -4.6 23.7
05:25 1012 29.88 841 24.83 -0.3 31.5 72 -4.7 23.6
05:30 1012 29.88 841 24.83 -0.4 31.3 73 -4.6 23.7
05:35 1012 29.88 841 24.83 -0.7 30.7 74 -4.8 23.3
05:40 1012 29.88 841 24.83 -0.7 30.8 73 -4.8 23.3
05:45 1012 29.88 841 24.83 -0.7 30.7 73 -4.9 23.2
05:50 1012 29.88 842 24.86 -0.8 30.5 74 -4.9 23.1
05:55 1012 29.88 842 24.86 -0.8 30.6 74 -4.9 23.1
06:00 1012 29.88 842 24.86 -0.6 30.9 73 -4.9 23.2
06:05 1013 29.91 842 24.86 -0.5 31.1 73 -4.7 23.5
06:10 1013 29.91 842 24.86 -0.4 31.3 72 -4.9 23.2
06:15 1013 29.91 842 24.86 -0.3 31.4 71 -5 23
06:20 1013 29.91 842 24.86 -0.3 31.5 71 -5 23
06:25 1013 29.91 842 24.86 -0.2 31.6 69 -5.2 22.6
06:30 1013 29.91 842 24.86 -0.1 31.8 68 -5.3 22.5
06:35 1013 29.91 842 24.86 -0.1 31.8 67 -5.5 22.1
06:40 1013 29.91 842 24.86 -0.1 31.8 65 -5.8 21.5
06:45 1013 29.91 842 24.86 -0.1 31.9 64 -6.1 21.1
06:50 1013 29.91 842 24.86 -0 32 62 -6.5 20.3
06:55 1013 29.91 842 24.86 0.1 32.1 61 -6.7 20
07:00 1013 29.91 842 24.86 0.1 32.1 59 -7 19.4
07:05 1013 29.91 842 24.86 0.1 32.2 59 -7 19.4
07:10 1013 29.91 843 24.89 0 32.1 59 -7.1 19.1
07:15 1013 29.91 843 24.89 -0 31.9 60 -6.8 19.8
07:20 1013 29.91 843 24.89 -0.2 31.6 62 -6.7 19.9
07:25 1014 29.94 843 24.89 -0.3 31.4 62 -6.7 19.9
07:30 1014 29.94 843 24.89 -0.4 31.2 63 -6.7 20
07:35 1014 29.94 843 24.89 -0.5 31.1 62 -6.8 19.7
07:40 1014 29.94 843 24.89 -0.5 31.1 61 -7 19.3
07:45 1014 29.94 843 24.89 -0.4 31.3 60 -7.2 19.1
07:50 1014 29.94 843 24.89 -0.3 31.5 60 -7.1 19.2
07:55 1014 29.94 843 24.89 -0.3 31.5 60 -7.1 19.2
08:00 1014 29.94 843 24.89 -0.2 31.6 60 -7.1 19.2
08:05 1014 29.94 844 24.92 -0.1 31.8 59 -7.2 19.1
08:10 1014 29.94 844 24.92 0 32 58 -7.3 18.9
08:15 1015 29.97 844 24.92 0.1 32.2 59 -7 19.4
08:20 1015 29.97 844 24.92 -0 32 60 -6.9 19.5
08:25 1015 29.97 844 24.92 -0.1 31.8 60 -6.9 19.6
08:30 1015 29.97 844 24.92 -0.2 31.6 62 -6.7 19.9
08:35 1015 29.97 844 24.92 -0.4 31.3 63 -6.6 20.1
08:40 1015 29.97 844 24.92 -0.5 31.1 63 -6.7 19.9
08:45 1015 29.97 844 24.92 -0.6 31 63 -6.7 19.9
08:50 1015 29.97 844 24.92 -0.5 31 63 -6.7 19.9
08:55 1015 29.97 844 24.92 -0.5 31.1 62 -6.9 19.5
09:00 1015 29.97 844 24.92 -0.4 31.2 62 -6.8 19.8
09:05 1015 29.97 844 24.92 -0.4 31.3 62 -6.9 19.6
09:10 1015 29.97 845 24.95 -0.4 31.3 60 -7.2 19
09:15 1015 29.97 845 24.95 -0.3 31.4 61 -7 19.4
09:20 1016 30 845 24.95 -0.3 31.4 61 -6.9 19.6
09:25 1016 30 845 24.95 -0.3 31.4 61 -7 19.4
09:30 1016 30 845 24.95 -0.2 31.6 60 -7 19.4
09:35 1016 30 845 24.95 -0 32 60 -6.8 19.7
09:40 1016 30 845 24.95 0.1 32.2 60 -6.8 19.7
09:45 1016 30 845 24.95 0.1 32.2 60 -6.8 19.8
09:50 1016 30 846 24.98 0.1 32.2 62 -6.4 20.5
09:55 1016 30 846 24.98 0 32.1 63 -6.3 20.7
10:00 1017 30.03 846 24.98 0 32.1 64 -6 21.2
10:05 1017 30.03 846 24.98 -0 32 64 -6 21.2
10:10 1017 30.03 846 24.98 -0.1 31.8 65 -5.9 21.4
10:15 1017 30.03 846 24.98 -0.2 31.7 66 -5.9 21.5
10:20 1017 30.03 846 24.98 -0.4 31.3 68 -5.6 21.9
10:25 1017 30.03 846 24.98 -0.7 30.7 69 -5.8 21.5
10:30 1017 30.03 847 25.01 -0.6 30.9 69 -5.7 21.8
10:35 1017 30.03 847 25.01 -0.5 31.1 68 -5.6 21.8
10:40 1018 30.06 847 25.01 -0.6 30.9 70 -5.4 22.3
10:45 1018 30.06 847 25.01 0 32 67 -5.4 22.3
10:50 1018 30.06 847 25.01 0.1 32.1 67 -5.4 22.3
10:55 1018 30.06 847 25.01 -0.1 31.8 68 -5.3 22.5
11:00 1018 30.06 847 25.01 -0.2 31.6 68 -5.5 22.1
11:05 1018 30.06 848 25.04 -0.1 31.7 67 -5.5 22
11:10 1019 30.09 848 25.04 0 32 65 -5.7 21.7
11:15 1019 30.09 848 25.04 0.4 32.7 64 -5.7 21.8
11:20 1019 30.09 848 25.04 0.4 32.6 64 -5.7 21.8
11:25 1019 30.09 848 25.04 0.1 32.1 65 -5.7 21.8
11:30 1019 30.09 848 25.04 0.1 32.2 65 -5.8 21.5
11:35 1019 30.09 848 25.04 -0 32 65 -5.8 21.5
11:40 1019 30.09 848 25.04 -0.1 31.8 65 -5.8 21.5
11:45 1019 30.09 848 25.04 -0.3 31.5 65 -6 21.1
11:50 1019 30.09 848 25.04 -0.3 31.5 65 -6.2 20.9
11:55 1019 30.09 848 25.04 0.2 32.3 64 -5.9 21.3
12:00 1019 30.09 848 25.04 0.5 32.9 62 -6 21.2
12:05 1019 30.09 848 25.04 1.1 34 59 -6.1 21.1
12:10 1019 30.09 848 25.04 1 33.8 60 -6 21.2
12:15 1019 30.09 848 25.04 1.1 34 59 -6 21.2
12:20 1019 30.09 848 25.04 1.1 33.9 59 -6 21.2
12:25 1019 30.09 848 25.04 1.2 34.1 60 -5.7 21.8
12:30 1019 30.09 848 25.04 1.3 34.3 62 -5.1 22.8
12:35 1019 30.09 848 25.04 1.5 34.8 60 -5.5 22.1
12:40 1019 30.09 849 25.07 1.9 35.5 59 -5.2 22.7
12:45 1019 30.09 849 25.07 2 35.6 59 -5.2 22.7
12:50 1019 30.09 849 25.07 2.6 36.6 56 -5.4 22.3
12:55 1019 30.09 849 25.07 2.8 37 56 -5 22.9
13:00 1019 30.09 849 25.07 2.4 36.3 57 -5.3 22.5
13:05 1019 30.09 849 25.07 2.2 36 58 -5.3 22.5
13:10 1019 30.09 849 25.07 2.2 35.9 57 -5.5 22.2
13:15 1019 30.09 849 25.07 2.1 35.8 57 -5.5 22.1
13:20 1019 30.09 849 25.07 2.1 35.7 58 -5.4 22.2
13:25 1019 30.09 849 25.07 2.1 35.8 58 -5.3 22.4
13:30 1020 30.12 849 25.07 2.4 36.3 57 -5.3 22.4
13:35 1020 30.12 849 25.07 2.3 36.1 57 -5.4 22.3
13:40 1020 30.12 849 25.07 2.2 35.9 57 -5.4 22.2
13:45 1020 30.12 849 25.07 2.2 35.9 57 -5.5 22.2
13:50 1020 30.12 849 25.07 2.4 36.3 55 -5.7 21.7
13:55 1019 30.09 849 25.07 2.7 36.9 54 -5.6 21.9
14:00 1019 30.09 849 25.07 2.7 36.8 55 -5.4 22.3
14:05 1019 30.09 849 25.07 2.5 36.5 56 -5.5 22.2
14:10 1019 30.09 849 25.07 2.4 36.3 57 -5.3 22.5
14:15 1019 30.09 849 25.07 2.2 35.9 59 -5 23
14:20 1019 30.09 849 25.07 1.3 34.3 63 -5 23.1
14:25 1019 30.09 849 25.07 0.7 33.2 66 -5.1 22.9
14:30 1019 30.09 849 25.07 1 33.7 63 -5.3 22.5
14:35 1019 30.09 849 25.07 1.3 34.3 61 -5.4 22.3
14:40 1019 30.09 849 25.07 1.2 34.2 61 -5.6 21.9
14:45 1019 30.09 849 25.07 1.3 34.4 61 -5.5 22.2
14:50 1019 30.09 849 25.07 1.9 35.3 57 -5.8 21.5
14:55 1019 30.09 849 25.07 2.4 36.3 56 -5.5 22.1
15:00 1019 30.09 849 25.07 2.4 36.3 55 -5.8 21.6
15:05 1019 30.09 849 25.07 2 35.5 55 -6.1 21
15:10 1020 30.12 849 25.07 1.7 35.1 56 -6.2 20.8
15:15 1019 30.09 849 25.07 1.4 34.5 59 -5.8 21.6
15:20 1020 30.12 849 25.07 1 33.7 60 -5.9 21.4
15:25 1020 30.12 849 25.07 0.5 33 60 -6.3 20.6
15:30 1020 30.12 849 25.07 1 33.8 59 -6.1 21
15:35 1020 30.12 849 25.07 1.7 35.1 53 -6.8 19.8
15:40 1020 30.12 849 25.07 3 37.4 49 -6.7 19.9
15:45 1020 30.12 849 25.07 3.5 38.2 47 -6.9 19.5
15:50 1020 30.12 849 25.07 3.7 38.7 47 -6.6 20
15:55 1020 30.12 849 25.07 3.7 38.7 47 -6.5 20.3
16:00 1020 30.12 849 25.07 3.4 38.2 48 -6.6 20.1
16:05 1020 30.12 849 25.07 3 37.3 51 -6.3 20.7
16:10 1020 30.12 849 25.07 2.2 36 53 -6.5 20.3
16:15 1020 30.12 849 25.07 1.9 35.4 53 -6.7 19.9
16:20 1020 30.12 849 25.07 1.8 35.2 53 -6.8 19.8
16:25 1020 30.12 849 25.07 2.1 35.8 51 -6.9 19.6
16:30 1020 30.12 849 25.07 2.5 36.6 51 -6.5 20.2
16:35 1020 30.12 849 25.07 2.9 37.2 50 -6.6 20.1
16:40 1020 30.12 849 25.07 2.9 37.2 50 -6.6 20.1
16:45 1020 30.12 849 25.07 2.8 37 50 -6.7 20
16:50 1020 30.12 849 25.07 2.7 36.9 51 -6.5 20.2
16:55 1020 30.12 849 25.07 2.6 36.7 50 -6.7 20
17:00 1020 30.12 849 25.07 2.5 36.5 50 -6.9 19.5
17:05 1020 30.12 849 25.07 2.3 36.1 51 -6.8 19.7
17:10 1020 30.12 849 25.07 1.9 35.4 53 -6.7 19.9
17:15 1020 30.12 849 25.07 1.4 34.5 54 -7 19.3
17:20 1020 30.12 850 25.1 1 33.9 55 -7 19.3
17:25 1020 30.12 850 25.1 0.8 33.4 55 -7.2 19
17:30 1020 30.12 849 25.07 0.6 33.2 55 -7.3 18.9
17:35 1020 30.12 849 25.07 0.6 33.1 56 -7.2 19
17:40 1020 30.12 849 25.07 0.4 32.7 57 -7.3 18.9
17:45 1020 30.12 849 25.07 0.3 32.5 57 -7.4 18.7
17:50 1020 30.12 849 25.07 -1.5 29.4 63 -7.7 18.1
17:55 1020 30.12 849 25.07 -1.8 28.8 61 -8.3 17
18:00 1020 30.12 850 25.1 -1 30.1 59 -8.1 17.4
18:05 1020 30.12 850 25.1 -0.8 30.6 58 -8 17.7
18:10 1021 30.15 850 25.1 -0.6 30.9 58 -7.9 17.7
18:15 1021 30.15 850 25.1 -0.6 31 56 -8.3 17.1
18:20 1021 30.15 850 25.1 -0.6 30.9 56 -8.2 17.2
18:25 1021 30.15 850 25.1 -1.1 29.9 57 -8.6 16.5
18:30 1021 30.15 850 25.1 -1.7 29 57 -9 15.7
18:35 1021 30.15 850 25.1 -1.7 28.9 58 -9 15.8
18:40 1021 30.15 850 25.1 -1.8 28.8 56 -9.3 15.2
18:45 1021 30.15 850 25.1 -1.8 28.7 57 -9.3 15.3
18:50 1021 30.15 850 25.1 -2.1 28.2 57 -9.5 14.9
18:55 1021 30.15 850 25.1 -2.1 28.2 56 -9.7 14.6
19:00 1021 30.15 850 25.1 -2.1 28.1 57 -9.6 14.8
19:05 1021 30.15 850 25.1 -2.5 27.4 59 -9.6 14.8
19:10 1021 30.15 850 25.1 -2.4 27.6 57 -9.7 14.5
19:15 1021 30.15 850 25.1 -2.2 28 57 -9.7 14.6
19:20 1021 30.15 850 25.1 -2.6 27.4 58 -9.8 14.4
19:25 1021 30.15 850 25.1 -2.9 26.8 59 -9.8 14.3
19:30 1021 30.15 850 25.1 -2.7 27.2 58 -9.9 14.2
19:35 1021 30.15 850 25.1 -2.8 27 58 -9.9 14.3
19:40 1021 30.15 850 25.1 -3.1 26.4 58 -10.2 13.6
19:45 1021 30.15 850 25.1 -3.3 26.1 59 -10.2 13.7
19:50 1021 30.15 850 25.1 -3.3 26.1 58 -10.4 13.3
19:55 1021 30.15 850 25.1 -2.5 27.5 56 -10.2 13.6
20:00 1021 30.15 850 25.1 -2.2 28 55 -10 14
20:05 1021 30.15 850 25.1 -2 28.4 54 -10.1 13.9
20:10 1021 30.15 850 25.1 -1.7 28.9 54 -9.9 14.2
20:15 1021 30.15 850 25.1 -1.7 28.9 54 -9.8 14.4
20:20 1021 30.15 850 25.1 -1.8 28.7 55 -9.8 14.3
20:25 1021 30.15 850 25.1 -1.9 28.5 54 -10 14.1
20:30 1021 30.15 850 25.1 -2.1 28.3 55 -10 14
20:35 1021 30.15 850 25.1 -2.1 28.2 55 -10 14
20:40 1021 30.15 850 25.1 -2.1 28.3 55 -10 14
20:45 1021 30.15 850 25.1 -2.1 28.2 55 -10 13.9
20:50 1021 30.15 850 25.1 -2.1 28.2 55 -10.1 13.9
20:55 1021 30.15 850 25.1 -2.6 27.4 58 -9.8 14.4
21:00 1021 30.15 850 25.1 -4 24.8 63 -10.1 13.9
21:05 1021 30.15 850 25.1 -4.6 23.7 64 -10.5 13.1
21:10 1021 30.15 850 25.1 -5.1 22.8 66 -10.6 12.9
21:15 1021 30.15 850 25.1 -5.1 22.8 64 -10.9 12.4
21:20 1021 30.15 850 25.1 -5.2 22.6 65 -10.7 12.7
21:25 1021 30.15 850 25.1 -5 23 65 -10.7 12.8
21:30 1021 30.15 850 25.1 -5.1 22.9 66 -10.5 13.1
21:35 1020 30.12 850 25.1 -5.4 22.2 67 -10.6 12.9
21:40 1020 30.12 850 25.1 -5 23.1 62 -11.2 11.8
21:45 1020 30.12 849 25.07 -4.1 24.6 60 -10.7 12.7
21:50 1020 30.12 849 25.07 -4.1 24.6 60 -10.7 12.8
21:55 1020 30.12 850 25.1 -3.9 24.9 59 -10.8 12.6
22:00 1020 30.12 849 25.07 -3.9 24.9 60 -10.6 13
22:05 1020 30.12 849 25.07 -4 24.8 60 -10.7 12.7
22:10 1020 30.12 849 25.07 -3.6 25.5 59 -10.6 12.9
22:15 1020 30.12 849 25.07 -3.4 25.8 59 -10.4 13.2
22:20 1020 30.12 849 25.07 -3.7 25.4 60 -10.4 13.3
22:25 1020 30.12 849 25.07 -3.7 25.3 60 -10.5 13.1
22:30 1020 30.12 849 25.07 -3.8 25.2 61 -10.3 13.4
22:35 1020 30.12 849 25.07 -4 24.9 62 -10.2 13.6
22:40 1020 30.12 849 25.07 -4.4 24.1 62 -10.6 13
22:45 1020 30.12 849 25.07 -4.1 24.5 62 -10.4 13.2
22:50 1020 30.12 849 25.07 -4.3 24.2 63 -10.5 13.2
22:55 1020 30.12 849 25.07 -4.4 24 64 -10.3 13.5
23:00 1020 30.12 849 25.07 -4.8 23.4 64 -10.5 13.1
23:05 1020 30.12 849 25.07 -5 22.9 65 -10.7 12.8
23:10 1020 30.12 849 25.07 -4.8 23.3 63 -10.9 12.4
23:15 1020 30.12 849 25.07 -4.3 24.3 63 -10.4 13.3
23:20 1020 30.12 849 25.07 -3.8 25.1 60 -10.5 13.1
23:25 1020 30.12 849 25.07 -4.3 24.2 63 -10.4 13.4
23:30 1020 30.12 849 25.07 -4.9 23.2 66 -10.3 13.5
23:35 1020 30.12 849 25.07 -4.7 23.5 63 -10.8 12.5
23:40 1019 30.09 849 25.07 -4.3 24.3 65 -10 14
23:45 1019 30.09 849 25.07 -5.1 22.9 66 -10.5 13.1
23:50 1019 30.09 849 25.07 -5.3 22.5 67 -10.5 13
23:55 1019 30.09 849 25.07 -5.1 22.7 67 -10.4 13.2
24:00 1019 30.09 849 25.07 -5 22.9 66 -10.5 13.1